createdAt,value
2023-07-24T00:01:12.298Z,0
2023-07-24T00:02:28.546Z,0
2023-07-24T00:03:44.798Z,0
2023-07-24T00:05:01.041Z,0
2023-07-24T00:06:17.298Z,0
2023-07-24T00:07:33.540Z,0
2023-07-24T00:08:49.785Z,0
2023-07-24T00:10:05.108Z,0
2023-07-24T00:11:21.356Z,0
2023-07-24T00:11:45.000Z,0
2023-07-24T00:13:53.876Z,0
2023-07-24T00:15:10.128Z,0
2023-07-24T00:16:26.378Z,0
2023-07-24T00:16:50.000Z,0
2023-07-24T00:18:58.877Z,0
2023-07-24T00:20:15.151Z,0
2023-07-24T00:21:31.370Z,0
2023-07-24T00:22:47.622Z,0
2023-07-24T00:24:03.861Z,0
2023-07-24T00:25:20.117Z,0
2023-07-24T00:26:36.364Z,0
2023-07-24T00:27:51.675Z,0
2023-07-24T00:29:07.917Z,0
2023-07-24T00:30:24.169Z,0
2023-07-24T00:31:40.414Z,0
2023-07-24T00:32:56.668Z,0
2023-07-24T00:33:20.000Z,0
2023-07-24T00:35:29.164Z,0
2023-07-24T00:36:45.418Z,0
2023-07-24T00:38:01.664Z,0
2023-07-24T00:39:17.907Z,0
2023-07-24T00:40:34.155Z,0
2023-07-24T00:41:50.403Z,0
2023-07-24T00:43:06.650Z,0
2023-07-24T00:44:21.956Z,0
2023-07-24T00:45:38.214Z,0
2023-07-24T00:46:54.481Z,0
2023-07-24T00:47:18.000Z,0
2023-07-24T00:49:26.956Z,0
2023-07-24T00:50:43.201Z,0
2023-07-24T00:51:59.457Z,0
2023-07-24T00:52:23.000Z,0
2023-07-24T00:54:31.954Z,0
2023-07-24T00:55:48.201Z,0
2023-07-24T00:57:04.453Z,0
2023-07-24T00:58:20.693Z,0
2023-07-24T00:58:44.000Z,0
2023-07-24T01:00:52.258Z,0
2023-07-24T01:02:08.507Z,0
2023-07-24T01:04:41.001Z,0
2023-07-24T01:05:57.241Z,0
2023-07-24T01:07:13.498Z,0
2023-07-24T01:08:29.745Z,0
2023-07-24T01:09:45.991Z,0
2023-07-24T01:11:02.243Z,0
2023-07-24T01:12:18.495Z,0
2023-07-24T01:13:34.743Z,0
2023-07-24T01:14:50.985Z,0
2023-07-24T01:15:14.000Z,0
2023-07-24T01:17:22.549Z,0
2023-07-24T01:18:38.797Z,0
2023-07-24T01:19:02.000Z,0
2023-07-24T01:21:11.297Z,0
2023-07-24T01:23:43.792Z,0
2023-07-24T01:25:00.033Z,0
2023-07-24T01:27:32.536Z,0
2023-07-24T01:28:47.866Z,0
2023-07-24T01:30:03.172Z,0
2023-07-24T01:31:19.415Z,0
2023-07-24T01:32:35.661Z,0
2023-07-24T01:33:51.913Z,0
2023-07-24T01:35:08.158Z,0
2023-07-24T01:36:24.415Z,0
2023-07-24T01:37:40.665Z,0
2023-07-24T01:38:56.908Z,0
2023-07-24T01:40:13.156Z,0
2023-07-24T01:41:28.483Z,0
2023-07-24T01:41:51.000Z,0
2023-07-24T01:44:00.000Z,0
2023-07-24T01:45:16.296Z,0
2023-07-24T01:46:32.535Z,0
2023-07-24T01:47:48.791Z,0
2023-07-24T01:48:12.000Z,0
2023-07-24T01:50:21.276Z,0
2023-07-24T01:51:37.528Z,0
2023-07-24T01:52:53.776Z,0
2023-07-24T01:54:10.031Z,0
2023-07-24T01:55:26.282Z,0
2023-07-24T01:56:42.519Z,0
2023-07-24T01:57:58.772Z,0
2023-07-24T01:59:15.027Z,0
2023-07-24T02:00:30.335Z,0
2023-07-24T02:01:46.573Z,0
2023-07-24T02:03:02.827Z,0
2023-07-24T02:04:19.077Z,0
2023-07-24T02:04:43.000Z,0
2023-07-24T02:06:51.568Z,0
2023-07-24T02:08:07.820Z,0
2023-07-24T02:09:24.069Z,0
2023-07-24T02:10:40.317Z,0
2023-07-24T02:11:04.000Z,0
2023-07-24T02:13:12.812Z,0
2023-07-24T02:14:29.060Z,0
2023-07-24T02:15:45.317Z,0
2023-07-24T02:17:00.620Z,0
2023-07-24T02:18:16.868Z,0
2023-07-24T02:19:33.114Z,0
2023-07-24T02:20:49.366Z,0
2023-07-24T02:22:05.612Z,0
2023-07-24T02:23:21.866Z,0
2023-07-24T02:24:38.111Z,0
2023-07-24T02:25:54.360Z,0
2023-07-24T02:27:10.610Z,0
2023-07-24T02:28:26.865Z,0
2023-07-24T02:29:43.105Z,0
2023-07-24T02:30:59.356Z,0
2023-07-24T02:32:15.600Z,0
2023-07-24T02:33:30.908Z,0
2023-07-24T02:33:54.000Z,0
2023-07-24T02:36:03.406Z,0
2023-07-24T02:37:19.655Z,0
2023-07-24T02:38:35.904Z,0
2023-07-24T02:41:08.397Z,0
2023-07-24T02:42:24.652Z,0
2023-07-24T02:43:40.898Z,0
2023-07-24T02:44:57.142Z,0
2023-07-24T02:47:29.644Z,0
2023-07-24T02:48:45.895Z,0
2023-07-24T02:50:01.196Z,0
2023-07-24T02:51:17.447Z,0
2023-07-24T02:52:33.701Z,0
2023-07-24T02:55:06.188Z,0
2023-07-24T02:56:21.519Z,0
2023-07-24T02:57:37.767Z,0
2023-07-24T02:58:54.015Z,0
2023-07-24T03:00:10.268Z,0
2023-07-24T03:01:25.567Z,0
2023-07-24T03:01:49.000Z,0
2023-07-24T03:03:58.071Z,0
2023-07-24T03:05:14.320Z,0
2023-07-24T03:06:30.563Z,0
2023-07-24T03:07:46.809Z,0
2023-07-24T03:09:02.137Z,0
2023-07-24T03:10:18.388Z,0
2023-07-24T03:11:34.635Z,4
2023-07-24T03:12:49.935Z,4
2023-07-24T03:14:06.191Z,4
2023-07-24T03:15:22.436Z,4
2023-07-24T03:16:38.691Z,4
2023-07-24T03:17:54.940Z,8
2023-07-24T03:19:11.190Z,12
2023-07-24T03:19:35.000Z,12
2023-07-24T03:21:43.678Z,16
2023-07-24T03:22:59.932Z,20
2023-07-24T03:24:16.182Z,28
2023-07-24T03:24:40.000Z,32
2023-07-24T03:26:48.685Z,40
2023-07-24T03:28:04.928Z,48
2023-07-24T03:29:20.239Z,60
2023-07-24T03:30:36.479Z,68
2023-07-24T03:31:52.730Z,80
2023-07-24T03:33:08.976Z,92
2023-07-24T03:34:25.225Z,104
2023-07-24T03:35:41.472Z,128
2023-07-24T03:36:57.726Z,148
2023-07-24T03:38:13.966Z,172
2023-07-24T03:39:30.224Z,200
2023-07-24T03:40:46.472Z,228
2023-07-24T03:42:02.713Z,260
2023-07-24T03:43:18.969Z,288
2023-07-24T03:44:35.216Z,312
2023-07-24T03:45:51.459Z,336
2023-07-24T03:47:06.773Z,356
2023-07-24T03:49:39.266Z,380
2023-07-24T03:50:55.512Z,388
2023-07-24T03:52:11.772Z,400
2023-07-24T03:53:28.008Z,412
2023-07-24T03:53:51.000Z,420
2023-07-24T03:56:00.511Z,432
2023-07-24T03:57:16.758Z,448
2023-07-24T03:58:33.006Z,472
2023-07-24T03:59:49.257Z,500
2023-07-24T04:01:05.507Z,532
2023-07-24T04:02:21.752Z,576
2023-07-24T04:03:37.059Z,624
2023-07-24T04:04:53.302Z,684
2023-07-24T04:07:25.803Z,852
2023-07-24T04:08:42.049Z,968
2023-07-24T04:09:58.302Z,1108
2023-07-24T04:11:14.548Z,1264
2023-07-24T04:12:30.793Z,1432
2023-07-24T04:13:47.047Z,1576
2023-07-24T04:15:03.297Z,1648
2023-07-24T04:16:19.546Z,1764
2023-07-24T04:17:35.796Z,1928
2023-07-24T04:18:52.045Z,2076
2023-07-24T04:20:07.342Z,2112
2023-07-24T04:21:23.597Z,2256
2023-07-24T04:23:56.085Z,2776
2023-07-24T04:25:11.410Z,2916
2023-07-24T04:26:27.656Z,2992
2023-07-24T04:27:43.918Z,3060
2023-07-24T04:29:00.148Z,3156
2023-07-24T04:30:16.401Z,3128
2023-07-24T04:31:32.655Z,3148
2023-07-24T04:32:48.906Z,3236
2023-07-24T04:34:05.145Z,3292
2023-07-24T04:35:21.393Z,3364
2023-07-24T04:36:37.653Z,3556
2023-07-24T04:37:53.898Z,3644
2023-07-24T04:38:17.000Z,3804
2023-07-24T04:40:26.391Z,4120
2023-07-24T04:41:42.645Z,4508
2023-07-24T04:42:58.886Z,4752
2023-07-24T04:44:14.194Z,4772
2023-07-24T04:45:30.442Z,4984
2023-07-24T04:48:02.948Z,6108
2023-07-24T04:49:19.192Z,6580
2023-07-24T04:50:35.445Z,7264
2023-07-24T04:53:07.932Z,8584
2023-07-24T04:54:24.178Z,8604
2023-07-24T04:55:40.429Z,9472
2023-07-24T04:56:56.675Z,11204
2023-07-24T04:58:12.931Z,9412
2023-07-24T04:59:29.177Z,9960
2023-07-24T05:00:45.430Z,13368
2023-07-24T05:02:01.672Z,13104
2023-07-24T05:04:33.234Z,13036
2023-07-24T05:05:48.566Z,13156
2023-07-24T05:07:04.813Z,14112
2023-07-24T05:08:21.060Z,15040
2023-07-24T05:09:37.305Z,16704
2023-07-24T05:10:52.611Z,18848
2023-07-24T05:12:08.854Z,20256
2023-07-24T05:13:25.105Z,19712
2023-07-24T05:14:41.352Z,17696
2023-07-24T05:15:57.599Z,12340
2023-07-24T05:17:13.856Z,11696
2023-07-24T05:18:30.100Z,11708
2023-07-24T05:19:45.433Z,13008
2023-07-24T05:21:01.681Z,14476
2023-07-24T05:22:17.937Z,17184
2023-07-24T05:23:33.234Z,18784
2023-07-24T05:24:49.488Z,16384
2023-07-24T05:27:21.989Z,20384
2023-07-24T05:28:38.240Z,17664
2023-07-24T05:29:54.488Z,21888
2023-07-24T05:31:10.735Z,23712
2023-07-24T05:32:26.976Z,23200
2023-07-24T05:34:07.000Z,23456
2023-07-24T05:36:14.804Z,23328
2023-07-24T05:37:31.055Z,22816
2023-07-24T05:38:47.300Z,21632
2023-07-24T05:40:02.604Z,16096
2023-07-24T05:41:18.862Z,16864
2023-07-24T05:45:07.611Z,20832
2023-07-24T05:46:23.854Z,13676
2023-07-24T05:47:40.106Z,16512
2023-07-24T05:48:56.355Z,11088
2023-07-24T05:50:12.601Z,10252
2023-07-24T05:51:27.930Z,10568
2023-07-24T05:52:44.183Z,10916
2023-07-24T05:53:59.480Z,10588
2023-07-24T05:55:15.737Z,9804
2023-07-24T05:56:31.987Z,9484
2023-07-24T05:57:48.233Z,9712
2023-07-24T05:59:04.474Z,9664
2023-07-24T06:00:20.726Z,9540
2023-07-24T06:01:36.978Z,9684
2023-07-24T06:02:53.228Z,10044
2023-07-24T06:04:09.473Z,10472
2023-07-24T06:06:41.055Z,10944
2023-07-24T06:07:57.300Z,11548
2023-07-24T06:09:13.554Z,13416
2023-07-24T06:10:28.841Z,15748
2023-07-24T06:11:45.091Z,16160
2023-07-24T06:13:01.343Z,15164
2023-07-24T06:14:17.584Z,13812
2023-07-24T06:15:33.848Z,12504
2023-07-24T06:18:06.331Z,11848
2023-07-24T06:19:22.580Z,11668
2023-07-24T06:20:38.840Z,11516
2023-07-24T06:21:55.086Z,11376
2023-07-24T06:25:43.829Z,13872
2023-07-24T06:26:59.134Z,16768
2023-07-24T06:28:15.380Z,18784
2023-07-24T06:29:31.634Z,20128
2023-07-24T06:30:47.878Z,20224
2023-07-24T06:32:04.137Z,19104
2023-07-24T06:33:20.382Z,17952
2023-07-24T06:37:09.130Z,16928
2023-07-24T06:38:25.379Z,16224
2023-07-24T06:40:57.878Z,14920
2023-07-24T06:42:14.131Z,14532
2023-07-24T06:43:30.376Z,14260
2023-07-24T06:44:45.680Z,14156
2023-07-24T06:47:18.176Z,14604
2023-07-24T06:48:34.433Z,14896
2023-07-24T06:49:50.670Z,14984
2023-07-24T06:51:06.940Z,14880
2023-07-24T06:52:23.176Z,14772
2023-07-24T06:53:39.428Z,14676
2023-07-24T06:54:55.681Z,14540
2023-07-24T06:56:11.928Z,14256
2023-07-24T06:57:28.173Z,14148
2023-07-24T07:00:00.676Z,14432
2023-07-24T07:01:16.926Z,14196
2023-07-24T07:02:33.169Z,13856
2023-07-24T07:03:48.479Z,13428
2023-07-24T07:05:04.736Z,12964
2023-07-24T07:06:20.986Z,13016
2023-07-24T07:07:37.237Z,13516
2023-07-24T07:08:53.480Z,14000
2023-07-24T07:10:09.727Z,13768
2023-07-24T07:11:25.982Z,12700
2023-07-24T07:12:42.234Z,11652
2023-07-24T07:15:13.809Z,10448
2023-07-24T07:16:29.124Z,10484
2023-07-24T07:17:45.369Z,10804
2023-07-24T07:19:01.623Z,11112
2023-07-24T07:20:17.873Z,11052
2023-07-24T07:21:34.110Z,10520
2023-07-24T07:22:50.372Z,9616
2023-07-24T07:24:06.619Z,8836
2023-07-24T07:25:22.873Z,8172
2023-07-24T07:26:39.114Z,7660
2023-07-24T07:27:54.440Z,7180
2023-07-24T07:29:10.691Z,6824
2023-07-24T07:30:25.993Z,6640
2023-07-24T07:31:42.245Z,6664
2023-07-24T07:32:58.493Z,6980
2023-07-24T07:34:14.744Z,7428
2023-07-24T07:35:30.994Z,7612
2023-07-24T07:36:47.243Z,7584
2023-07-24T07:39:19.740Z,8344
2023-07-24T07:40:35.992Z,9020
2023-07-24T07:41:52.239Z,9744
2023-07-24T07:43:08.486Z,10416
2023-07-24T07:44:24.734Z,11076
2023-07-24T07:45:40.991Z,11592
2023-07-24T07:46:56.304Z,11924
2023-07-24T07:48:12.546Z,12168
2023-07-24T07:49:28.800Z,12520
2023-07-24T07:50:45.050Z,13060
2023-07-24T07:52:01.295Z,13964
2023-07-24T07:53:17.541Z,14764
2023-07-24T07:55:50.044Z,16160
2023-07-24T07:58:22.551Z,16672
2023-07-24T07:59:38.812Z,16160
2023-07-24T08:00:55.036Z,16576
2023-07-24T08:02:10.373Z,17856
2023-07-24T08:03:26.623Z,19712
2023-07-24T08:04:41.922Z,22944
2023-07-24T08:05:58.171Z,26784
2023-07-24T08:07:14.416Z,29600
2023-07-24T08:08:30.665Z,30784
2023-07-24T08:09:46.919Z,29600
2023-07-24T08:11:03.168Z,27744
2023-07-24T08:12:19.409Z,26816
2023-07-24T08:13:35.666Z,27552
2023-07-24T08:14:51.917Z,29280
2023-07-24T08:16:07.245Z,28224
2023-07-24T08:17:23.489Z,26176
2023-07-24T08:18:39.742Z,23968
2023-07-24T08:19:55.987Z,22656
2023-07-24T08:21:12.239Z,22368
2023-07-24T08:22:27.536Z,22208
2023-07-24T08:23:43.792Z,22528
2023-07-24T08:25:00.036Z,23328
2023-07-24T08:26:16.287Z,24288
2023-07-24T08:27:32.539Z,25952
2023-07-24T08:28:48.789Z,28736
2023-07-24T08:30:05.051Z,31872
2023-07-24T08:31:21.287Z,35648
2023-07-24T08:32:36.611Z,37536
2023-07-24T08:33:52.873Z,39008
2023-07-24T08:35:09.110Z,39360
2023-07-24T08:36:25.363Z,37664
2023-07-24T08:37:40.672Z,36640
2023-07-24T08:38:56.913Z,34496
2023-07-24T08:41:29.422Z,31936
2023-07-24T08:42:45.660Z,30432
2023-07-24T08:44:01.922Z,28096
2023-07-24T08:46:33.481Z,60576
2023-07-24T08:49:05.063Z,39872
2023-07-24T08:50:20.388Z,36928
2023-07-24T08:51:36.634Z,44864
2023-07-24T08:52:52.895Z,56224
2023-07-24T08:55:25.387Z,47872
2023-07-24T08:56:40.689Z,93696
2023-07-24T08:57:56.941Z,88896
2023-07-24T08:59:13.206Z,96256
2023-07-24T09:00:29.453Z,86432
2023-07-24T09:01:45.691Z,43136
2023-07-24T09:03:01.946Z,42496
2023-07-24T09:04:18.189Z,100960
2023-07-24T09:05:34.450Z,111264
2023-07-24T09:06:50.708Z,107584
2023-07-24T09:08:06.950Z,95328
2023-07-24T09:09:23.195Z,103968
2023-07-24T09:10:39.446Z,107456
2023-07-24T09:11:55.690Z,111232
2023-07-24T09:13:11.007Z,64768
2023-07-24T09:14:27.253Z,51744
2023-07-24T09:15:43.497Z,50752
2023-07-24T09:16:59.755Z,50784
2023-07-24T09:19:32.255Z,51008
2023-07-24T09:20:48.500Z,58592
2023-07-24T09:22:04.750Z,57920
2023-07-24T09:23:21.019Z,55808
2023-07-24T09:24:36.326Z,54112
2023-07-24T09:25:52.585Z,48672
2023-07-24T09:27:07.875Z,46560
2023-07-24T09:28:24.127Z,51456
2023-07-24T09:29:40.380Z,55456
2023-07-24T09:30:56.627Z,121120
2023-07-24T09:34:45.377Z,134496
2023-07-24T09:36:01.631Z,94368
2023-07-24T09:37:17.879Z,99008
2023-07-24T09:38:34.127Z,48608
2023-07-24T09:39:50.374Z,39296
2023-07-24T09:41:05.706Z,36288
2023-07-24T09:42:21.005Z,40960
2023-07-24T09:43:37.250Z,41536
2023-07-24T09:44:53.505Z,89120
2023-07-24T09:46:09.759Z,71232
2023-07-24T09:47:26.014Z,60864
2023-07-24T09:48:42.253Z,123392
2023-07-24T09:49:58.509Z,106304
2023-07-24T09:52:31.010Z,35424
2023-07-24T09:53:47.265Z,50976
2023-07-24T09:54:11.000Z,33856
2023-07-24T09:56:19.758Z,28992
2023-07-24T09:57:36.009Z,24960
2023-07-24T09:58:52.259Z,24864
2023-07-24T10:01:23.823Z,33824
2023-07-24T10:02:40.066Z,98176
2023-07-24T10:03:55.398Z,75072
2023-07-24T10:05:10.708Z,49472
2023-07-24T10:06:26.948Z,116160
2023-07-24T10:07:43.204Z,113216
2023-07-24T10:08:59.465Z,97632
2023-07-24T10:10:15.705Z,78816
2023-07-24T10:11:31.953Z,115968
2023-07-24T10:12:48.199Z,109952
2023-07-24T10:14:04.449Z,101888
2023-07-24T10:15:20.704Z,111904
2023-07-24T10:16:36.037Z,113568
2023-07-24T10:17:52.280Z,99904
2023-07-24T10:19:07.596Z,80384
2023-07-24T10:20:23.833Z,112128
2023-07-24T10:21:40.093Z,120640
2023-07-24T10:22:56.339Z,52576
2023-07-24T10:24:12.589Z,46944
2023-07-24T10:25:28.841Z,41344
2023-07-24T10:26:45.089Z,41536
2023-07-24T10:28:01.341Z,46752
2023-07-24T10:29:17.593Z,61184
2023-07-24T10:30:33.838Z,60352
2023-07-24T10:31:50.084Z,124384
2023-07-24T10:33:05.423Z,50464
2023-07-24T10:34:20.727Z,43648
2023-07-24T10:35:36.967Z,43904
2023-07-24T10:36:53.212Z,41344
2023-07-24T10:38:09.466Z,42016
2023-07-24T10:39:25.713Z,96768
2023-07-24T10:40:41.962Z,50912
2023-07-24T10:41:58.218Z,133568
2023-07-24T10:43:14.465Z,55488
2023-07-24T10:44:30.720Z,126144
2023-07-24T10:45:46.969Z,88832
2023-07-24T10:47:03.219Z,123296
2023-07-24T10:49:35.723Z,48160
2023-07-24T10:50:51.006Z,44992
2023-07-24T10:52:07.258Z,87552
2023-07-24T10:53:23.527Z,53920
2023-07-24T10:54:39.765Z,105376
2023-07-24T10:55:56.013Z,43392
2023-07-24T10:57:12.260Z,41024
2023-07-24T10:59:44.764Z,43136
2023-07-24T11:01:01.015Z,44384
2023-07-24T11:02:17.261Z,45056
2023-07-24T11:03:33.506Z,50784
2023-07-24T11:04:49.757Z,57344
2023-07-24T11:06:06.010Z,52736
2023-07-24T11:07:21.302Z,65440
2023-07-24T11:08:37.559Z,108864
2023-07-24T11:09:53.805Z,49216
2023-07-24T11:11:10.055Z,45504
2023-07-24T11:12:26.303Z,44224
2023-07-24T11:13:42.560Z,47872
2023-07-24T11:14:58.802Z,51744
2023-07-24T11:17:31.314Z,88384
2023-07-24T11:18:47.557Z,66464
2023-07-24T11:20:03.804Z,134144
2023-07-24T11:21:20.055Z,129856
2023-07-24T11:22:36.299Z,128736
2023-07-24T11:23:51.593Z,80640
2023-07-24T11:25:07.848Z,46720
2023-07-24T11:26:24.105Z,99520
2023-07-24T11:27:40.356Z,75744
2023-07-24T11:28:56.602Z,59584
2023-07-24T11:30:12.847Z,117696
2023-07-24T11:31:29.100Z,117952
2023-07-24T11:32:45.358Z,120032
2023-07-24T11:34:01.608Z,121056
2023-07-24T11:35:17.852Z,115712
2023-07-24T11:36:34.100Z,117568
2023-07-24T11:37:50.359Z,49216
2023-07-24T11:39:06.603Z,49504
2023-07-24T11:40:22.867Z,62240
2023-07-24T11:41:39.102Z,134880
2023-07-24T11:42:54.407Z,40416
2023-07-24T11:44:10.662Z,62528
2023-07-24T11:45:26.918Z,31328
2023-07-24T11:46:43.167Z,30912
2023-07-24T11:47:59.414Z,107392
2023-07-24T11:49:15.666Z,31360
2023-07-24T11:50:31.913Z,26048
2023-07-24T11:51:48.161Z,32256
2023-07-24T11:53:04.417Z,38240
2023-07-24T11:54:20.659Z,114304
2023-07-24T11:55:36.913Z,38784
2023-07-24T11:56:53.161Z,38496
2023-07-24T11:58:09.420Z,32704
2023-07-24T11:59:25.661Z,24832
2023-07-24T12:00:41.908Z,18432
2023-07-24T12:01:04.000Z,14372
2023-07-24T12:03:13.472Z,14408
2023-07-24T12:03:37.000Z,18272
2023-07-24T12:05:45.961Z,26272
2023-07-24T12:07:02.218Z,28128
2023-07-24T12:08:18.458Z,22848
2023-07-24T12:09:34.721Z,19616
2023-07-24T12:10:50.959Z,19296
2023-07-24T12:12:07.214Z,25440
2023-07-24T12:13:23.468Z,32096
2023-07-24T12:14:39.720Z,33984
2023-07-24T12:15:55.962Z,33824
2023-07-24T12:17:12.217Z,32672
2023-07-24T12:18:28.465Z,28960
2023-07-24T12:19:43.767Z,21632
2023-07-24T12:21:00.010Z,13388
2023-07-24T12:22:16.261Z,7288
2023-07-24T12:23:32.508Z,7508
2023-07-24T12:24:48.760Z,14156
2023-07-24T12:26:05.010Z,23712
2023-07-24T12:27:21.265Z,31296
2023-07-24T12:28:37.505Z,28256
2023-07-24T12:29:53.754Z,31264
2023-07-24T12:31:10.012Z,50496
2023-07-24T12:32:26.260Z,81056
2023-07-24T12:33:42.510Z,139488
2023-07-24T12:34:58.758Z,142720
2023-07-24T12:36:14.062Z,125664
2023-07-24T12:37:30.314Z,51104
2023-07-24T12:38:46.560Z,136448
2023-07-24T12:40:02.809Z,198304
2023-07-24T12:41:19.059Z,154592
2023-07-24T12:42:35.314Z,106208
2023-07-24T12:43:51.565Z,104992
2023-07-24T12:45:07.804Z,103008
2023-07-24T12:46:24.058Z,90368
2023-07-24T12:47:40.312Z,88320
2023-07-24T12:48:56.551Z,90816
2023-07-24T12:50:12.809Z,94080
2023-07-24T12:51:29.064Z,93472
2023-07-24T12:52:45.304Z,96256
2023-07-24T12:54:01.560Z,50560
2023-07-24T12:55:16.866Z,71840
2023-07-24T12:56:33.119Z,59232
2023-07-24T12:57:49.362Z,41056
2023-07-24T12:59:05.611Z,108928
2023-07-24T13:00:21.871Z,51104
2023-07-24T13:01:38.120Z,114720
2023-07-24T13:02:54.369Z,74336
2023-07-24T13:04:10.618Z,80288
2023-07-24T13:05:26.867Z,96480
2023-07-24T13:06:42.190Z,98656
2023-07-24T13:07:58.434Z,39744
2023-07-24T13:09:14.676Z,113568
2023-07-24T13:10:30.940Z,114848
2023-07-24T13:11:47.187Z,117056
2023-07-24T13:13:03.445Z,112896
2023-07-24T13:14:19.690Z,113888
2023-07-24T13:15:35.939Z,107232
2023-07-24T13:16:52.177Z,99648
2023-07-24T13:18:08.427Z,105632
2023-07-24T13:19:24.684Z,104256
2023-07-24T13:20:40.935Z,93728
2023-07-24T13:21:57.183Z,85952
2023-07-24T13:23:13.431Z,84576
2023-07-24T13:24:28.735Z,91456
2023-07-24T13:25:44.983Z,90272
2023-07-24T13:27:01.230Z,87712
2023-07-24T13:28:17.481Z,76160
2023-07-24T13:29:33.726Z,55488
2023-07-24T13:30:49.978Z,80896
2023-07-24T13:32:06.234Z,80704
2023-07-24T13:33:22.480Z,62304
2023-07-24T13:34:38.733Z,88736
2023-07-24T13:35:54.985Z,88096
2023-07-24T13:37:11.237Z,30368
2023-07-24T13:38:27.484Z,89216
2023-07-24T13:39:43.737Z,45728
2023-07-24T13:40:59.046Z,87200
2023-07-24T13:43:31.541Z,80672
2023-07-24T13:44:47.796Z,79168
2023-07-24T13:46:04.044Z,78048
2023-07-24T13:47:20.297Z,79904
2023-07-24T13:48:36.546Z,83904
2023-07-24T13:51:09.044Z,41440
2023-07-24T13:52:25.290Z,63104
2023-07-24T13:54:57.797Z,44576
2023-07-24T13:56:14.039Z,84256
2023-07-24T13:57:29.378Z,49152
2023-07-24T13:58:44.672Z,53888
2023-07-24T14:00:00.922Z,82784
2023-07-24T14:01:17.180Z,76832
2023-07-24T14:02:33.426Z,75488
2023-07-24T14:03:49.669Z,75200
2023-07-24T14:05:05.927Z,72544
2023-07-24T14:06:22.167Z,74304
2023-07-24T14:07:38.424Z,74336
2023-07-24T14:08:54.681Z,69408
2023-07-24T14:10:10.009Z,70400
2023-07-24T14:10:33.000Z,79456
2023-07-24T14:12:41.559Z,21696
2023-07-24T14:13:57.809Z,79520
2023-07-24T14:15:14.058Z,24416
2023-07-24T14:16:30.315Z,85856
2023-07-24T14:17:46.569Z,84128
2023-07-24T14:19:02.810Z,81984
2023-07-24T14:20:19.067Z,80576
2023-07-24T14:21:35.317Z,83008
2023-07-24T14:24:07.817Z,77760
2023-07-24T14:25:24.061Z,22848
2023-07-24T14:26:40.314Z,21216
2023-07-24T14:27:56.570Z,18656
2023-07-24T14:29:12.814Z,17376
2023-07-24T14:30:28.118Z,13508
2023-07-24T14:31:44.364Z,11508
2023-07-24T14:33:00.623Z,10688
2023-07-24T14:34:40.000Z,17120
2023-07-24T14:36:49.368Z,40000
2023-07-24T14:38:05.619Z,27296
2023-07-24T14:40:38.120Z,27904
2023-07-24T14:41:53.453Z,26912
2023-07-24T14:43:08.763Z,28096
2023-07-24T14:44:25.003Z,24576
2023-07-24T14:45:41.252Z,22272
2023-07-24T14:46:57.503Z,18816
2023-07-24T14:48:13.752Z,15712
2023-07-24T14:49:30.009Z,15048
2023-07-24T14:50:46.252Z,17376
2023-07-24T14:52:02.520Z,33600
2023-07-24T14:53:18.752Z,25920
2023-07-24T14:54:34.086Z,29440
2023-07-24T14:55:49.388Z,31264
2023-07-24T14:57:05.642Z,36064
2023-07-24T14:58:21.888Z,31104
2023-07-24T14:59:38.140Z,29888
2023-07-24T15:00:54.387Z,27456
2023-07-24T15:02:10.638Z,27808
2023-07-24T15:03:26.897Z,25184
2023-07-24T15:04:43.142Z,23744
2023-07-24T15:05:59.394Z,21792
2023-07-24T15:07:15.643Z,19520
2023-07-24T15:08:31.890Z,16512
2023-07-24T15:09:48.141Z,13972
2023-07-24T15:11:04.394Z,13320
2023-07-24T15:12:19.700Z,12764
2023-07-24T15:13:35.952Z,12008
2023-07-24T15:14:52.195Z,12948
2023-07-24T15:16:08.468Z,16160
2023-07-24T15:17:24.705Z,19264
2023-07-24T15:18:40.944Z,23072
2023-07-24T15:19:57.198Z,25248
2023-07-24T15:21:13.447Z,27232
2023-07-24T15:22:29.694Z,27200
2023-07-24T15:23:45.960Z,33120
2023-07-24T15:25:02.198Z,26720
2023-07-24T15:26:18.449Z,25440
2023-07-24T15:27:34.702Z,24224
2023-07-24T15:28:50.951Z,23808
2023-07-24T15:30:06.257Z,24224
2023-07-24T15:31:22.510Z,24192
2023-07-24T15:32:38.753Z,23552
2023-07-24T15:33:55.004Z,22752
2023-07-24T15:35:11.251Z,22592
2023-07-24T15:36:27.502Z,24704
2023-07-24T15:37:43.751Z,27776
2023-07-24T15:39:00.004Z,31424
2023-07-24T15:40:16.260Z,36576
2023-07-24T15:41:32.504Z,57664
2023-07-24T15:44:05.008Z,31200
2023-07-24T15:45:21.260Z,25600
2023-07-24T15:46:36.563Z,26816
2023-07-24T15:47:52.808Z,51872
2023-07-24T15:49:09.063Z,45024
2023-07-24T15:50:25.315Z,46400
2023-07-24T15:51:41.561Z,25184
2023-07-24T15:52:57.805Z,22432
2023-07-24T15:55:30.317Z,19968
2023-07-24T15:56:46.558Z,41728
2023-07-24T15:58:02.809Z,41952
2023-07-24T15:59:19.064Z,44768
2023-07-24T16:00:35.317Z,46720
2023-07-24T16:01:51.564Z,46144
2023-07-24T16:03:06.875Z,31936
2023-07-24T16:04:23.114Z,44640
2023-07-24T16:06:55.617Z,43360
2023-07-24T16:08:11.864Z,44992
2023-07-24T16:09:27.193Z,47680
2023-07-24T16:10:42.497Z,48032
2023-07-24T16:11:58.755Z,49472
2023-07-24T16:13:14.995Z,49504
2023-07-24T16:14:31.245Z,49536
2023-07-24T16:15:47.493Z,50880
2023-07-24T16:17:03.741Z,49920
2023-07-24T16:18:19.997Z,46656
2023-07-24T16:19:36.248Z,47552
2023-07-24T16:20:52.487Z,49600
2023-07-24T16:22:08.734Z,48512
2023-07-24T16:23:24.063Z,63008
2023-07-24T16:24:39.376Z,64992
2023-07-24T16:25:55.629Z,61408
2023-07-24T16:27:11.873Z,62368
2023-07-24T16:28:28.117Z,55584
2023-07-24T16:29:44.369Z,55168
2023-07-24T16:31:00.611Z,56128
2023-07-24T16:32:16.864Z,54368
2023-07-24T16:33:33.107Z,52896
2023-07-24T16:34:49.355Z,52448
2023-07-24T16:36:05.611Z,51904
2023-07-24T16:37:21.861Z,50112
2023-07-24T16:38:38.112Z,49984
2023-07-24T16:39:54.354Z,49248
2023-07-24T16:41:10.601Z,50752
2023-07-24T16:42:26.854Z,49408
2023-07-24T16:43:42.162Z,47296
2023-07-24T16:44:58.403Z,45536
2023-07-24T16:46:14.655Z,42016
2023-07-24T16:48:47.155Z,41056
2023-07-24T16:50:03.400Z,39744
2023-07-24T16:51:19.652Z,40992
2023-07-24T16:52:35.906Z,40608
2023-07-24T16:53:52.155Z,36128
2023-07-24T16:55:08.398Z,36224
2023-07-24T16:56:24.645Z,40384
2023-07-24T16:57:40.895Z,18368
2023-07-24T16:58:57.156Z,14800
2023-07-24T17:00:13.399Z,19072
2023-07-24T17:01:28.693Z,38112
2023-07-24T17:02:44.949Z,38784
2023-07-24T17:04:01.186Z,41600
2023-07-24T17:05:17.441Z,40960
2023-07-24T17:06:33.687Z,18976
2023-07-24T17:07:49.936Z,18464
2023-07-24T17:09:06.180Z,15660
2023-07-24T17:10:22.435Z,33760
2023-07-24T17:11:38.677Z,12608
2023-07-24T17:12:54.938Z,12464
2023-07-24T17:14:11.175Z,22496
2023-07-24T17:16:43.680Z,18336
2023-07-24T17:17:58.982Z,14840
2023-07-24T17:19:15.228Z,13012
2023-07-24T17:20:31.479Z,12264
2023-07-24T17:23:03.048Z,11860
2023-07-24T17:24:18.367Z,11696
2023-07-24T17:25:34.608Z,11868
2023-07-24T17:26:50.854Z,13164
2023-07-24T17:28:07.100Z,15432
2023-07-24T17:29:23.353Z,17920
2023-07-24T17:31:55.849Z,19392
2023-07-24T17:33:11.180Z,19744
2023-07-24T17:34:27.430Z,20064
2023-07-24T17:35:42.721Z,20544
2023-07-24T17:36:58.972Z,21504
2023-07-24T17:38:15.213Z,21504
2023-07-24T17:39:31.463Z,19616
2023-07-24T17:40:47.717Z,23168
2023-07-24T17:42:03.962Z,26464
2023-07-24T17:43:20.217Z,25856
2023-07-24T17:44:36.472Z,24928
2023-07-24T17:45:52.710Z,23840
2023-07-24T17:47:08.042Z,23072
2023-07-24T17:48:24.290Z,13528
2023-07-24T17:49:40.534Z,12192
2023-07-24T17:50:56.782Z,11332
2023-07-24T17:52:12.090Z,18112
2023-07-24T17:53:28.346Z,10568
2023-07-24T17:54:44.587Z,10184
2023-07-24T17:56:00.834Z,9932
2023-07-24T17:57:17.078Z,9612
2023-07-24T17:58:33.331Z,10000